sensor_id;sensor_type;location;lat;lon;timestamp;P1;durP1;ratioP1;P2;durP2;ratioP2
54328;SDS011;40710;51.120;13.136;2023-10-19T00:00:30;23.58;;;23.55;;
54328;SDS011;40710;51.120;13.136;2023-10-19T00:02:57;24.61;;;24.21;;
54328;SDS011;40710;51.120;13.136;2023-10-19T00:05:22;24.43;;;24.18;;
54328;SDS011;40710;51.120;13.136;2023-10-19T00:07:50;23.99;;;23.80;;
54328;SDS011;40710;51.120;13.136;2023-10-19T00:10:17;24.80;;;24.36;;
54328;SDS011;40710;51.120;13.136;2023-10-19T00:12:42;24.75;;;24.46;;
54328;SDS011;40710;51.120;13.136;2023-10-19T00:15:08;25.45;;;24.89;;
54328;SDS011;40710;51.120;13.136;2023-10-19T00:17:34;25.39;;;24.92;;
54328;SDS011;40710;51.120;13.136;2023-10-19T00:19:58;25.56;;;25.18;;
54328;SDS011;40710;51.120;13.136;2023-10-19T00:22:46;24.89;;;24.89;;
54328;SDS011;40710;51.120;13.136;2023-10-19T00:25:11;24.85;;;24.50;;
54328;SDS011;40710;51.120;13.136;2023-10-19T00:27:37;26.16;;;25.33;;
54328;SDS011;40710;51.120;13.136;2023-10-19T00:30:02;25.57;;;24.78;;
54328;SDS011;40710;51.120;13.136;2023-10-19T00:32:34;25.51;;;25.17;;
54328;SDS011;40710;51.120;13.136;2023-10-19T00:35:02;24.38;;;24.27;;
54328;SDS011;40710;51.120;13.136;2023-10-19T00:37:32;24.28;;;24.24;;
54328;SDS011;40710;51.120;13.136;2023-10-19T00:40:00;24.59;;;24.15;;
54328;SDS011;40710;51.120;13.136;2023-10-19T00:42:39;24.72;;;24.43;;
54328;SDS011;40710;51.120;13.136;2023-10-19T00:45:10;24.93;;;24.56;;
54328;SDS011;40710;51.120;13.136;2023-10-19T00:47:37;23.67;;;23.62;;
54328;SDS011;40710;51.120;13.136;2023-10-19T00:50:04;25.06;;;24.46;;
54328;SDS011;40710;51.120;13.136;2023-10-19T00:52:29;24.69;;;24.23;;
54328;SDS011;40710;51.120;13.136;2023-10-19T00:54:56;24.53;;;24.04;;
54328;SDS011;40710;51.120;13.136;2023-10-19T00:57:22;23.55;;;23.43;;
54328;SDS011;40710;51.120;13.136;2023-10-19T00:59:57;24.43;;;24.01;;
54328;SDS011;40710;51.120;13.136;2023-10-19T01:02:46;23.50;;;23.17;;
54328;SDS011;40710;51.120;13.136;2023-10-19T01:05:10;24.47;;;23.94;;
54328;SDS011;40710;51.120;13.136;2023-10-19T01:07:37;24.27;;;23.95;;
54328;SDS011;40710;51.120;13.136;2023-10-19T01:10:02;23.89;;;23.65;;
54328;SDS011;40710;51.120;13.136;2023-10-19T01:12:29;24.06;;;23.90;;
54328;SDS011;40710;51.120;13.136;2023-10-19T01:17:42;23.68;;;23.37;;
54328;SDS011;40710;51.120;13.136;2023-10-19T01:20:21;25.09;;;24.37;;
54328;SDS011;40710;51.120;13.136;2023-10-19T01:22:59;23.55;;;23.07;;
54328;SDS011;40710;51.120;13.136;2023-10-19T01:25:31;23.44;;;22.94;;
54328;SDS011;40710;51.120;13.136;2023-10-19T01:27:58;23.59;;;23.39;;
54328;SDS011;40710;51.120;13.136;2023-10-19T01:30:23;22.78;;;22.74;;
54328;SDS011;40710;51.120;13.136;2023-10-19T01:32:48;23.44;;;23.30;;
54328;SDS011;40710;51.120;13.136;2023-10-19T01:35:12;23.40;;;23.20;;
54328;SDS011;40710;51.120;13.136;2023-10-19T01:37:37;23.15;;;23.07;;
54328;SDS011;40710;51.120;13.136;2023-10-19T01:40:02;23.08;;;23.02;;
54328;SDS011;40710;51.120;13.136;2023-10-19T01:42:28;23.52;;;23.48;;
54328;SDS011;40710;51.120;13.136;2023-10-19T01:44:54;24.24;;;23.87;;
54328;SDS011;40710;51.120;13.136;2023-10-19T01:47:19;23.62;;;23.24;;
54328;SDS011;40710;51.120;13.136;2023-10-19T01:49:45;23.61;;;23.32;;
54328;SDS011;40710;51.120;13.136;2023-10-19T01:52:16;22.55;;;22.51;;
54328;SDS011;40710;51.120;13.136;2023-10-19T01:54:40;23.27;;;22.94;;
54328;SDS011;40710;51.120;13.136;2023-10-19T01:57:06;22.35;;;22.03;;
54328;SDS011;40710;51.120;13.136;2023-10-19T01:59:32;22.99;;;22.88;;
54328;SDS011;40710;51.120;13.136;2023-10-19T02:01:58;23.16;;;22.94;;
54328;SDS011;40710;51.120;13.136;2023-10-19T02:04:23;23.23;;;23.09;;
54328;SDS011;40710;51.120;13.136;2023-10-19T02:06:49;21.69;;;21.48;;
54328;SDS011;40710;51.120;13.136;2023-10-19T02:09:17;22.06;;;22.06;;
54328;SDS011;40710;51.120;13.136;2023-10-19T02:11:46;22.54;;;22.52;;
54328;SDS011;40710;51.120;13.136;2023-10-19T02:14:17;22.41;;;21.82;;
54328;SDS011;40710;51.120;13.136;2023-10-19T02:16:46;20.17;;;19.69;;
54328;SDS011;40710;51.120;13.136;2023-10-19T02:19:15;19.19;;;19.08;;
54328;SDS011;40710;51.120;13.136;2023-10-19T02:21:39;19.58;;;19.24;;
54328;SDS011;40710;51.120;13.136;2023-10-19T02:24:04;19.68;;;19.50;;
54328;SDS011;40710;51.120;13.136;2023-10-19T02:26:34;19.60;;;19.13;;
54328;SDS011;40710;51.120;13.136;2023-10-19T02:29:01;17.67;;;17.43;;
54328;SDS011;40710;51.120;13.136;2023-10-19T02:31:31;20.08;;;19.62;;
54328;SDS011;40710;51.120;13.136;2023-10-19T02:33:56;25.21;;;24.41;;
54328;SDS011;40710;51.120;13.136;2023-10-19T02:36:23;18.56;;;18.17;;
54328;SDS011;40710;51.120;13.136;2023-10-19T02:38:48;15.91;;;15.85;;
54328;SDS011;40710;51.120;13.136;2023-10-19T02:41:12;26.02;;;25.58;;
54328;SDS011;40710;51.120;13.136;2023-10-19T02:43:37;19.99;;;19.63;;
54328;SDS011;40710;51.120;13.136;2023-10-19T02:46:02;16.81;;;16.51;;
54328;SDS011;40710;51.120;13.136;2023-10-19T02:48:28;15.88;;;15.76;;
54328;SDS011;40710;51.120;13.136;2023-10-19T02:50:52;15.28;;;15.26;;
54328;SDS011;40710;51.120;13.136;2023-10-19T02:53:17;14.72;;;14.45;;
54328;SDS011;40710;51.120;13.136;2023-10-19T02:55:43;14.98;;;14.97;;
54328;SDS011;40710;51.120;13.136;2023-10-19T02:58:07;15.53;;;15.43;;
54328;SDS011;40710;51.120;13.136;2023-10-19T03:00:32;15.90;;;15.70;;
54328;SDS011;40710;51.120;13.136;2023-10-19T03:02:59;16.32;;;16.16;;
54328;SDS011;40710;51.120;13.136;2023-10-19T03:05:24;16.42;;;16.18;;
54328;SDS011;40710;51.120;13.136;2023-10-19T03:07:50;16.50;;;16.07;;
54328;SDS011;40710;51.120;13.136;2023-10-19T03:10:16;17.27;;;16.79;;
54328;SDS011;40710;51.120;13.136;2023-10-19T03:12:48;16.62;;;16.22;;
54328;SDS011;40710;51.120;13.136;2023-10-19T03:15:14;16.82;;;16.41;;
54328;SDS011;40710;51.120;13.136;2023-10-19T03:17:39;15.93;;;15.77;;
54328;SDS011;40710;51.120;13.136;2023-10-19T03:20:03;16.08;;;16.02;;
54328;SDS011;40710;51.120;13.136;2023-10-19T03:22:30;16.01;;;15.95;;
54328;SDS011;40710;51.120;13.136;2023-10-19T03:24:56;15.65;;;15.56;;
54328;SDS011;40710;51.120;13.136;2023-10-19T03:27:38;16.03;;;15.95;;
54328;SDS011;40710;51.120;13.136;2023-10-19T03:30:03;15.90;;;15.80;;
54328;SDS011;40710;51.120;13.136;2023-10-19T03:32:29;16.28;;;15.84;;
54328;SDS011;40710;51.120;13.136;2023-10-19T03:34:56;15.72;;;15.66;;
54328;SDS011;40710;51.120;13.136;2023-10-19T03:37:24;15.88;;;15.88;;
54328;SDS011;40710;51.120;13.136;2023-10-19T03:39:53;15.78;;;15.75;;
54328;SDS011;40710;51.120;13.136;2023-10-19T03:42:20;15.90;;;15.80;;
54328;SDS011;40710;51.120;13.136;2023-10-19T03:44:45;15.60;;;15.52;;
54328;SDS011;40710;51.120;13.136;2023-10-19T03:47:12;15.64;;;15.58;;
54328;SDS011;40710;51.120;13.136;2023-10-19T03:49:38;15.97;;;15.93;;
54328;SDS011;40710;51.120;13.136;2023-10-19T03:52:06;16.02;;;16.00;;
54328;SDS011;40710;51.120;13.136;2023-10-19T03:54:34;16.80;;;16.76;;
54328;SDS011;40710;51.120;13.136;2023-10-19T03:57:06;17.56;;;17.20;;
54328;SDS011;40710;51.120;13.136;2023-10-19T03:59:35;17.57;;;17.37;;
54328;SDS011;40710;51.120;13.136;2023-10-19T04:02:02;17.50;;;16.87;;
54328;SDS011;40710;51.120;13.136;2023-10-19T04:04:33;17.17;;;16.83;;
54328;SDS011;40710;51.120;13.136;2023-10-19T04:06:58;16.91;;;16.73;;
54328;SDS011;40710;51.120;13.136;2023-10-19T04:09:22;17.75;;;17.56;;
54328;SDS011;40710;51.120;13.136;2023-10-19T04:11:47;17.61;;;17.30;;
54328;SDS011;40710;51.120;13.136;2023-10-19T04:14:12;17.90;;;17.78;;
54328;SDS011;40710;51.120;13.136;2023-10-19T04:16:39;17.06;;;17.02;;
54328;SDS011;40710;51.120;13.136;2023-10-19T04:19:07;18.11;;;17.89;;
54328;SDS011;40710;51.120;13.136;2023-10-19T04:21:33;18.70;;;18.39;;
54328;SDS011;40710;51.120;13.136;2023-10-19T04:23:58;18.53;;;18.38;;
54328;SDS011;40710;51.120;13.136;2023-10-19T04:26:23;19.54;;;19.23;;
54328;SDS011;40710;51.120;13.136;2023-10-19T04:28:48;19.11;;;18.84;;
54328;SDS011;40710;51.120;13.136;2023-10-19T04:31:16;19.10;;;18.93;;
54328;SDS011;40710;51.120;13.136;2023-10-19T04:33:42;19.44;;;19.12;;
54328;SDS011;40710;51.120;13.136;2023-10-19T04:36:09;18.41;;;18.11;;
54328;SDS011;40710;51.120;13.136;2023-10-19T04:38:35;19.46;;;19.17;;
54328;SDS011;40710;51.120;13.136;2023-10-19T04:41:04;18.47;;;18.46;;
54328;SDS011;40710;51.120;13.136;2023-10-19T04:43:36;19.17;;;18.96;;
54328;SDS011;40710;51.120;13.136;2023-10-19T04:46:04;18.73;;;18.71;;
54328;SDS011;40710;51.120;13.136;2023-10-19T04:48:32;19.12;;;18.97;;
54328;SDS011;40710;51.120;13.136;2023-10-19T04:50:56;18.47;;;18.23;;
54328;SDS011;40710;51.120;13.136;2023-10-19T04:53:21;18.71;;;18.29;;
54328;SDS011;40710;51.120;13.136;2023-10-19T04:55:46;17.88;;;17.68;;
54328;SDS011;40710;51.120;13.136;2023-10-19T04:58:10;18.28;;;18.21;;
54328;SDS011;40710;51.120;13.136;2023-10-19T05:00:35;18.07;;;17.89;;
54328;SDS011;40710;51.120;13.136;2023-10-19T05:02:59;18.36;;;18.27;;
54328;SDS011;40710;51.120;13.136;2023-10-19T05:05:25;18.31;;;18.10;;
54328;SDS011;40710;51.120;13.136;2023-10-19T05:07:50;17.53;;;17.45;;
54328;SDS011;40710;51.120;13.136;2023-10-19T05:10:14;18.53;;;18.21;;
54328;SDS011;40710;51.120;13.136;2023-10-19T05:12:39;18.98;;;18.59;;
54328;SDS011;40710;51.120;13.136;2023-10-19T05:15:04;18.84;;;18.31;;
54328;SDS011;40710;51.120;13.136;2023-10-19T05:17:30;20.09;;;19.47;;
54328;SDS011;40710;51.120;13.136;2023-10-19T05:19:54;19.29;;;19.02;;
54328;SDS011;40710;51.120;13.136;2023-10-19T05:22:19;19.08;;;18.69;;
54328;SDS011;40710;51.120;13.136;2023-10-19T05:24:45;19.13;;;18.72;;
54328;SDS011;40710;51.120;13.136;2023-10-19T05:27:10;19.42;;;18.95;;
54328;SDS011;40710;51.120;13.136;2023-10-19T05:29:36;20.17;;;19.54;;
54328;SDS011;40710;51.120;13.136;2023-10-19T05:32:00;20.10;;;19.83;;
54328;SDS011;40710;51.120;13.136;2023-10-19T05:34:26;19.99;;;19.65;;
54328;SDS011;40710;51.120;13.136;2023-10-19T05:36:51;19.56;;;19.23;;
54328;SDS011;40710;51.120;13.136;2023-10-19T05:39:16;19.69;;;19.30;;
54328;SDS011;40710;51.120;13.136;2023-10-19T05:41:40;18.34;;;18.27;;
54328;SDS011;40710;51.120;13.136;2023-10-19T05:44:05;18.63;;;18.36;;
54328;SDS011;40710;51.120;13.136;2023-10-19T05:46:30;19.04;;;18.72;;
54328;SDS011;40710;51.120;13.136;2023-10-19T05:48:56;19.73;;;19.27;;
54328;SDS011;40710;51.120;13.136;2023-10-19T05:51:20;18.54;;;18.49;;
54328;SDS011;40710;51.120;13.136;2023-10-19T05:53:46;18.39;;;18.37;;
54328;SDS011;40710;51.120;13.136;2023-10-19T05:56:12;18.64;;;18.33;;
54328;SDS011;40710;51.120;13.136;2023-10-19T05:58:37;18.52;;;18.26;;
54328;SDS011;40710;51.120;13.136;2023-10-19T06:01:01;19.07;;;18.78;;
54328;SDS011;40710;51.120;13.136;2023-10-19T06:03:26;19.03;;;18.81;;
54328;SDS011;40710;51.120;13.136;2023-10-19T06:05:51;19.17;;;18.78;;
54328;SDS011;40710;51.120;13.136;2023-10-19T06:08:19;18.82;;;18.67;;
54328;SDS011;40710;51.120;13.136;2023-10-19T06:10:48;18.90;;;18.53;;
54328;SDS011;40710;51.120;13.136;2023-10-19T06:13:15;19.52;;;19.18;;
54328;SDS011;40710;51.120;13.136;2023-10-19T06:15:40;17.97;;;17.83;;
54328;SDS011;40710;51.120;13.136;2023-10-19T06:18:05;17.82;;;17.79;;
54328;SDS011;40710;51.120;13.136;2023-10-19T06:20:30;17.06;;;16.92;;
54328;SDS011;40710;51.120;13.136;2023-10-19T06:22:55;17.74;;;17.54;;
54328;SDS011;40710;51.120;13.136;2023-10-19T06:25:24;17.43;;;17.32;;
54328;SDS011;40710;51.120;13.136;2023-10-19T06:27:49;17.29;;;17.09;;
54328;SDS011;40710;51.120;13.136;2023-10-19T06:30:15;17.24;;;17.17;;
54328;SDS011;40710;51.120;13.136;2023-10-19T06:32:46;18.01;;;17.63;;
54328;SDS011;40710;51.120;13.136;2023-10-19T06:35:12;17.83;;;17.24;;
54328;SDS011;40710;51.120;13.136;2023-10-19T06:37:37;16.69;;;16.50;;
54328;SDS011;40710;51.120;13.136;2023-10-19T06:40:02;17.06;;;16.75;;
54328;SDS011;40710;51.120;13.136;2023-10-19T06:42:27;17.30;;;17.06;;
54328;SDS011;40710;51.120;13.136;2023-10-19T06:44:52;17.82;;;17.59;;
54328;SDS011;40710;51.120;13.136;2023-10-19T06:47:19;17.58;;;17.38;;
54328;SDS011;40710;51.120;13.136;2023-10-19T06:49:44;17.16;;;16.98;;
54328;SDS011;40710;51.120;13.136;2023-10-19T06:52:09;17.25;;;17.04;;
54328;SDS011;40710;51.120;13.136;2023-10-19T06:54:35;17.50;;;17.39;;
54328;SDS011;40710;51.120;13.136;2023-10-19T06:57:00;17.15;;;16.92;;
54328;SDS011;40710;51.120;13.136;2023-10-19T06:59:27;17.34;;;17.09;;
54328;SDS011;40710;51.120;13.136;2023-10-19T07:01:53;17.11;;;17.09;;
54328;SDS011;40710;51.120;13.136;2023-10-19T07:04:17;17.26;;;17.07;;
54328;SDS011;40710;51.120;13.136;2023-10-19T07:06:42;17.43;;;17.24;;
54328;SDS011;40710;51.120;13.136;2023-10-19T07:09:07;19.10;;;18.66;;
54328;SDS011;40710;51.120;13.136;2023-10-19T07:11:34;19.23;;;18.61;;
54328;SDS011;40710;51.120;13.136;2023-10-19T07:13:59;19.76;;;19.24;;
54328;SDS011;40710;51.120;13.136;2023-10-19T07:16:24;19.50;;;19.18;;
54328;SDS011;40710;51.120;13.136;2023-10-19T07:18:49;19.33;;;19.07;;
54328;SDS011;40710;51.120;13.136;2023-10-19T07:21:14;18.83;;;18.49;;
54328;SDS011;40710;51.120;13.136;2023-10-19T07:23:39;17.92;;;17.69;;
54328;SDS011;40710;51.120;13.136;2023-10-19T07:26:04;18.55;;;18.16;;
54328;SDS011;40710;51.120;13.136;2023-10-19T07:28:30;18.62;;;18.26;;
54328;SDS011;40710;51.120;13.136;2023-10-19T07:30:55;18.15;;;17.85;;
54328;SDS011;40710;51.120;13.136;2023-10-19T07:33:20;18.55;;;18.29;;
54328;SDS011;40710;51.120;13.136;2023-10-19T07:35:46;18.63;;;18.44;;
54328;SDS011;40710;51.120;13.136;2023-10-19T07:38:12;17.45;;;17.34;;
54328;SDS011;40710;51.120;13.136;2023-10-19T07:40:37;17.19;;;17.18;;
54328;SDS011;40710;51.120;13.136;2023-10-19T07:43:02;17.28;;;17.22;;
54328;SDS011;40710;51.120;13.136;2023-10-19T07:45:28;17.92;;;17.59;;
54328;SDS011;40710;51.120;13.136;2023-10-19T07:47:53;16.72;;;16.65;;
54328;SDS011;40710;51.120;13.136;2023-10-19T07:50:17;17.42;;;16.94;;
54328;SDS011;40710;51.120;13.136;2023-10-19T07:52:45;16.85;;;16.65;;
54328;SDS011;40710;51.120;13.136;2023-10-19T07:55:12;17.19;;;17.07;;
54328;SDS011;40710;51.120;13.136;2023-10-19T07:57:38;17.46;;;17.27;;
54328;SDS011;40710;51.120;13.136;2023-10-19T08:00:05;17.92;;;17.91;;
54328;SDS011;40710;51.120;13.136;2023-10-19T08:02:30;18.86;;;18.40;;
54328;SDS011;40710;51.120;13.136;2023-10-19T08:04:55;19.06;;;18.48;;
54328;SDS011;40710;51.120;13.136;2023-10-19T08:07:20;18.85;;;18.21;;
54328;SDS011;40710;51.120;13.136;2023-10-19T08:09:44;17.75;;;17.70;;
54328;SDS011;40710;51.120;13.136;2023-10-19T08:12:09;16.65;;;16.61;;
54328;SDS011;40710;51.120;13.136;2023-10-19T08:14:34;17.36;;;17.36;;
54328;SDS011;40710;51.120;13.136;2023-10-19T08:16:58;17.28;;;17.24;;
54328;SDS011;40710;51.120;13.136;2023-10-19T08:19:23;17.80;;;17.58;;
54328;SDS011;40710;51.120;13.136;2023-10-19T08:21:48;17.32;;;17.18;;
54328;SDS011;40710;51.120;13.136;2023-10-19T08:24:12;16.59;;;16.56;;
54328;SDS011;40710;51.120;13.136;2023-10-19T08:26:42;16.82;;;16.81;;
54328;SDS011;40710;51.120;13.136;2023-10-19T08:29:07;16.99;;;16.98;;
54328;SDS011;40710;51.120;13.136;2023-10-19T08:31:36;16.68;;;16.66;;
54328;SDS011;40710;51.120;13.136;2023-10-19T08:34:01;16.59;;;16.59;;
54328;SDS011;40710;51.120;13.136;2023-10-19T08:36:27;17.50;;;17.30;;
54328;SDS011;40710;51.120;13.136;2023-10-19T08:38:52;17.24;;;17.18;;
54328;SDS011;40710;51.120;13.136;2023-10-19T08:41:18;17.73;;;17.56;;
54328;SDS011;40710;51.120;13.136;2023-10-19T08:43:42;17.69;;;17.61;;
54328;SDS011;40710;51.120;13.136;2023-10-19T08:46:08;18.68;;;18.68;;
54328;SDS011;40710;51.120;13.136;2023-10-19T08:48:34;19.07;;;19.07;;
54328;SDS011;40710;51.120;13.136;2023-10-19T08:51:02;19.66;;;19.65;;
54328;SDS011;40710;51.120;13.136;2023-10-19T08:53:32;19.39;;;19.28;;
54328;SDS011;40710;51.120;13.136;2023-10-19T08:56:03;19.37;;;19.34;;
54328;SDS011;40710;51.120;13.136;2023-10-19T08:58:30;19.37;;;19.27;;
54328;SDS011;40710;51.120;13.136;2023-10-19T09:00:55;19.58;;;19.48;;
54328;SDS011;40710;51.120;13.136;2023-10-19T09:03:20;18.86;;;18.86;;
54328;SDS011;40710;51.120;13.136;2023-10-19T09:05:46;18.90;;;18.81;;
54328;SDS011;40710;51.120;13.136;2023-10-19T09:08:13;19.27;;;19.16;;
54328;SDS011;40710;51.120;13.136;2023-10-19T09:10:39;19.70;;;19.62;;
54328;SDS011;40710;51.120;13.136;2023-10-19T09:13:04;18.89;;;18.86;;
54328;SDS011;40710;51.120;13.136;2023-10-19T09:15:33;18.56;;;18.51;;
54328;SDS011;40710;51.120;13.136;2023-10-19T09:18:12;19.21;;;18.99;;
54328;SDS011;40710;51.120;13.136;2023-10-19T09:20:38;18.10;;;18.06;;
54328;SDS011;40710;51.120;13.136;2023-10-19T09:23:03;17.83;;;17.83;;
54328;SDS011;40710;51.120;13.136;2023-10-19T09:25:28;18.15;;;17.96;;
54328;SDS011;40710;51.120;13.136;2023-10-19T09:27:53;18.10;;;17.95;;
54328;SDS011;40710;51.120;13.136;2023-10-19T09:30:17;17.80;;;17.80;;
54328;SDS011;40710;51.120;13.136;2023-10-19T09:32:48;17.56;;;17.49;;
54328;SDS011;40710;51.120;13.136;2023-10-19T09:35:16;17.74;;;17.63;;
54328;SDS011;40710;51.120;13.136;2023-10-19T09:37:43;19.57;;;19.14;;
54328;SDS011;40710;51.120;13.136;2023-10-19T09:40:09;19.63;;;19.58;;
54328;SDS011;40710;51.120;13.136;2023-10-19T09:42:37;16.93;;;16.85;;
54328;SDS011;40710;51.120;13.136;2023-10-19T09:45:10;16.33;;;16.32;;
54328;SDS011;40710;51.120;13.136;2023-10-19T09:47:35;15.56;;;15.51;;
54328;SDS011;40710;51.120;13.136;2023-10-19T09:50:05;14.80;;;14.72;;
54328;SDS011;40710;51.120;13.136;2023-10-19T09:52:30;13.88;;;13.85;;
54328;SDS011;40710;51.120;13.136;2023-10-19T09:54:57;13.48;;;13.47;;
54328;SDS011;40710;51.120;13.136;2023-10-19T09:57:42;14.17;;;13.79;;
54328;SDS011;40710;51.120;13.136;2023-10-19T10:00:15;13.73;;;13.64;;
54328;SDS011;40710;51.120;13.136;2023-10-19T10:02:47;13.16;;;13.14;;
54328;SDS011;40710;51.120;13.136;2023-10-19T10:10:41;13.51;;;13.51;;
54328;SDS011;40710;51.120;13.136;2023-10-19T10:15:48;13.89;;;13.89;;
54328;SDS011;40710;51.120;13.136;2023-10-19T10:18:12;14.67;;;14.51;;
54328;SDS011;40710;51.120;13.136;2023-10-19T10:20:40;14.13;;;14.13;;
54328;SDS011;40710;51.120;13.136;2023-10-19T10:25:49;14.37;;;14.27;;
54328;SDS011;40710;51.120;13.136;2023-10-19T10:28:15;14.05;;;14.05;;
54328;SDS011;40710;51.120;13.136;2023-10-19T10:31:06;14.00;;;14.00;;
54328;SDS011;40710;51.120;13.136;2023-10-19T10:33:45;13.50;;;13.50;;
54328;SDS011;40710;51.120;13.136;2023-10-19T10:36:13;13.55;;;13.55;;
54328;SDS011;40710;51.120;13.136;2023-10-19T10:38:40;13.93;;;13.93;;
54328;SDS011;40710;51.120;13.136;2023-10-19T10:41:05;13.31;;;13.31;;
54328;SDS011;40710;51.120;13.136;2023-10-19T10:43:33;12.66;;;12.66;;
54328;SDS011;40710;51.120;13.136;2023-10-19T10:46:07;12.63;;;12.63;;
54328;SDS011;40710;51.120;13.136;2023-10-19T10:48:31;12.85;;;12.83;;
54328;SDS011;40710;51.120;13.136;2023-10-19T10:50:56;13.07;;;13.07;;
54328;SDS011;40710;51.120;13.136;2023-10-19T10:53:22;13.04;;;12.89;;
54328;SDS011;40710;51.120;13.136;2023-10-19T10:55:50;12.65;;;12.65;;
54328;SDS011;40710;51.120;13.136;2023-10-19T10:58:15;12.45;;;12.45;;
54328;SDS011;40710;51.120;13.136;2023-10-19T11:00:44;12.27;;;12.27;;
54328;SDS011;40710;51.120;13.136;2023-10-19T11:03:15;12.52;;;12.43;;
54328;SDS011;40710;51.120;13.136;2023-10-19T11:05:40;12.16;;;12.16;;
54328;SDS011;40710;51.120;13.136;2023-10-19T11:10:45;12.30;;;12.27;;
54328;SDS011;40710;51.120;13.136;2023-10-19T11:13:11;11.89;;;11.88;;
54328;SDS011;40710;51.120;13.136;2023-10-19T11:15:38;12.09;;;12.09;;
54328;SDS011;40710;51.120;13.136;2023-10-19T11:18:11;12.38;;;12.38;;
54328;SDS011;40710;51.120;13.136;2023-10-19T11:20:55;12.14;;;12.14;;
54328;SDS011;40710;51.120;13.136;2023-10-19T11:23:40;11.99;;;11.99;;
54328;SDS011;40710;51.120;13.136;2023-10-19T11:26:21;11.46;;;11.46;;
54328;SDS011;40710;51.120;13.136;2023-10-19T11:28:56;11.45;;;11.45;;
54328;SDS011;40710;51.120;13.136;2023-10-19T11:31:22;12.14;;;12.07;;
54328;SDS011;40710;51.120;13.136;2023-10-19T11:33:48;11.70;;;11.69;;
54328;SDS011;40710;51.120;13.136;2023-10-19T11:36:14;19.71;;;19.54;;
54328;SDS011;40710;51.120;13.136;2023-10-19T11:38:40;16.87;;;16.59;;
54328;SDS011;40710;51.120;13.136;2023-10-19T11:41:06;12.67;;;12.62;;
54328;SDS011;40710;51.120;13.136;2023-10-19T11:43:31;11.78;;;11.73;;
54328;SDS011;40710;51.120;13.136;2023-10-19T11:45:56;11.55;;;11.55;;
54328;SDS011;40710;51.120;13.136;2023-10-19T11:48:21;11.83;;;11.83;;
54328;SDS011;40710;51.120;13.136;2023-10-19T11:50:46;11.65;;;11.65;;
54328;SDS011;40710;51.120;13.136;2023-10-19T11:53:11;11.45;;;11.45;;
54328;SDS011;40710;51.120;13.136;2023-10-19T11:55:36;11.46;;;11.46;;
54328;SDS011;40710;51.120;13.136;2023-10-19T11:58:00;11.17;;;11.17;;
54328;SDS011;40710;51.120;13.136;2023-10-19T12:00:25;11.80;;;11.80;;
54328;SDS011;40710;51.120;13.136;2023-10-19T12:02:57;11.23;;;11.23;;
54328;SDS011;40710;51.120;13.136;2023-10-19T12:05:22;11.27;;;11.27;;
54328;SDS011;40710;51.120;13.136;2023-10-19T12:07:47;11.14;;;11.14;;
54328;SDS011;40710;51.120;13.136;2023-10-19T12:10:12;10.88;;;10.88;;
54328;SDS011;40710;51.120;13.136;2023-10-19T12:12:37;10.53;;;10.53;;
54328;SDS011;40710;51.120;13.136;2023-10-19T12:15:05;10.62;;;10.62;;
54328;SDS011;40710;51.120;13.136;2023-10-19T12:17:30;10.75;;;10.75;;
54328;SDS011;40710;51.120;13.136;2023-10-19T12:19:56;15.22;;;15.15;;
54328;SDS011;40710;51.120;13.136;2023-10-19T12:22:20;19.67;;;19.67;;
54328;SDS011;40710;51.120;13.136;2023-10-19T12:24:45;15.98;;;15.96;;
54328;SDS011;40710;51.120;13.136;2023-10-19T12:27:09;10.90;;;10.90;;
54328;SDS011;40710;51.120;13.136;2023-10-19T12:29:34;10.85;;;10.85;;
54328;SDS011;40710;51.120;13.136;2023-10-19T12:31:59;10.26;;;10.26;;
54328;SDS011;40710;51.120;13.136;2023-10-19T12:34:23;10.45;;;10.45;;
54328;SDS011;40710;51.120;13.136;2023-10-19T12:36:48;10.50;;;10.50;;
54328;SDS011;40710;51.120;13.136;2023-10-19T12:39:14;9.84;;;9.84;;
54328;SDS011;40710;51.120;13.136;2023-10-19T12:41:58;9.88;;;9.88;;
54328;SDS011;40710;51.120;13.136;2023-10-19T12:44:23;10.19;;;10.19;;
54328;SDS011;40710;51.120;13.136;2023-10-19T12:46:48;10.85;;;10.85;;
54328;SDS011;40710;51.120;13.136;2023-10-19T12:49:13;10.77;;;10.77;;
54328;SDS011;40710;51.120;13.136;2023-10-19T12:51:42;10.59;;;10.59;;
54328;SDS011;40710;51.120;13.136;2023-10-19T12:54:08;10.47;;;10.47;;
54328;SDS011;40710;51.120;13.136;2023-10-19T12:56:34;11.36;;;11.36;;
54328;SDS011;40710;51.120;13.136;2023-10-19T12:58:59;11.61;;;11.50;;
54328;SDS011;40710;51.120;13.136;2023-10-19T13:01:24;11.25;;;11.23;;
54328;SDS011;40710;51.120;13.136;2023-10-19T13:03:48;10.87;;;10.87;;
54328;SDS011;40710;51.120;13.136;2023-10-19T13:06:16;10.50;;;10.50;;
54328;SDS011;40710;51.120;13.136;2023-10-19T13:08:41;11.05;;;11.05;;
54328;SDS011;40710;51.120;13.136;2023-10-19T13:11:06;10.65;;;10.65;;
54328;SDS011;40710;51.120;13.136;2023-10-19T13:13:32;11.20;;;11.20;;
54328;SDS011;40710;51.120;13.136;2023-10-19T13:15:57;10.77;;;10.77;;
54328;SDS011;40710;51.120;13.136;2023-10-19T13:18:21;10.41;;;10.41;;
54328;SDS011;40710;51.120;13.136;2023-10-19T13:20:52;10.58;;;10.58;;
54328;SDS011;40710;51.120;13.136;2023-10-19T13:23:18;10.17;;;10.17;;
54328;SDS011;40710;51.120;13.136;2023-10-19T13:25:49;10.20;;;10.20;;
54328;SDS011;40710;51.120;13.136;2023-10-19T13:28:14;48.09;;;47.06;;
54328;SDS011;40710;51.120;13.136;2023-10-19T13:30:40;43.53;;;42.36;;
54328;SDS011;40710;51.120;13.136;2023-10-19T13:33:11;17.73;;;17.47;;
54328;SDS011;40710;51.120;13.136;2023-10-19T13:35:37;12.49;;;12.49;;
54328;SDS011;40710;51.120;13.136;2023-10-19T13:38:03;11.25;;;11.25;;
54328;SDS011;40710;51.120;13.136;2023-10-19T13:40:32;10.22;;;10.22;;
54328;SDS011;40710;51.120;13.136;2023-10-19T13:42:57;10.16;;;10.16;;
54328;SDS011;40710;51.120;13.136;2023-10-19T13:45:22;10.33;;;10.33;;
54328;SDS011;40710;51.120;13.136;2023-10-19T13:47:47;10.07;;;10.07;;
54328;SDS011;40710;51.120;13.136;2023-10-19T13:50:12;10.15;;;10.15;;
54328;SDS011;40710;51.120;13.136;2023-10-19T13:52:37;10.14;;;10.14;;
54328;SDS011;40710;51.120;13.136;2023-10-19T13:55:03;10.40;;;10.40;;
54328;SDS011;40710;51.120;13.136;2023-10-19T13:57:28;10.96;;;10.96;;
54328;SDS011;40710;51.120;13.136;2023-10-19T13:59:53;11.07;;;11.07;;
54328;SDS011;40710;51.120;13.136;2023-10-19T14:02:17;10.54;;;10.54;;
54328;SDS011;40710;51.120;13.136;2023-10-19T14:04:43;10.55;;;10.55;;
54328;SDS011;40710;51.120;13.136;2023-10-19T14:07:10;10.60;;;10.60;;
54328;SDS011;40710;51.120;13.136;2023-10-19T14:09:35;10.29;;;10.29;;
54328;SDS011;40710;51.120;13.136;2023-10-19T14:11:59;10.38;;;10.38;;
54328;SDS011;40710;51.120;13.136;2023-10-19T14:14:26;10.37;;;10.37;;
54328;SDS011;40710;51.120;13.136;2023-10-19T14:16:51;9.77;;;9.76;;
54328;SDS011;40710;51.120;13.136;2023-10-19T14:19:16;11.00;;;10.97;;
54328;SDS011;40710;51.120;13.136;2023-10-19T14:21:42;11.60;;;11.60;;